Time;durP1;ratioP1;P1;durP2;ratioP2;P2;SDS_P1;SDS_P2;PMS_P1;PMS_P2;Temp;Humidity;BMP_temperature;BMP_pressure;BME280_temperature;BME280_humidity;BME280_pressure;Samples;Min_cycle;Max_cycle;Signal;HPM_P1;HPM_P2
2023/03/19 00:01:41;;;;;;;5.82;2.92;;;;;;;;;;4899475;29;20203;-78
2023/03/19 00:04:07;;;;;;;3.58;2.15;;;;;;;;;;4866034;29;20203;-79
2023/03/19 00:06:33;;;;;;;5.90;2.55;;;;;;;;;;4899467;29;20704;-78
2023/03/19 00:09:00;;;;;;;3.50;2.33;;;;;;;;;;4899361;29;20210;-78
2023/03/19 00:11:26;;;;;;;6.22;2.80;;;;;;;;;;4898342;29;20257;-79
2023/03/19 00:13:52;;;;;;;7.70;3.10;;;;;;;;;;4899086;29;20221;-78
2023/03/19 00:16:19;;;;;;;8.00;2.50;;;;;;;;;;4898909;29;20183;-79
2023/03/19 00:18:46;;;;;;;3.88;2.42;;;;;;;;;;4898129;29;20179;-79
2023/03/19 00:21:13;;;;;;;6.20;2.40;;;;;;;;;;4898823;29;20175;-79
2023/03/19 00:23:39;;;;;;;3.65;3.13;;;;;;;;;;4882217;29;20554;-78
2023/03/19 00:26:06;;;;;;;5.80;2.65;;;;;;;;;;4898220;29;20176;-78
2023/03/19 00:28:32;;;;;;;5.00;3.05;;;;;;;;;;4898761;29;20670;-79
2023/03/19 00:31:06;;;;;;;5.40;3.30;;;;;;;;;;4899110;29;20186;-78
2023/03/19 00:33:32;;;;;;;5.30;3.03;;;;;;;;;;4898348;29;20209;-79
2023/03/19 00:35:58;;;;;;;4.13;3.17;;;;;;;;;;4902010;29;20253;-79
2023/03/19 00:38:24;;;;;;;5.63;3.35;;;;;;;;;;4885082;29;20788;-78
2023/03/19 00:40:50;;;;;;;5.57;3.67;;;;;;;;;;4901769;29;20183;-79
2023/03/19 00:43:16;;;;;;;8.50;2.37;;;;;;;;;;4885648;29;20826;-79
2023/03/19 00:45:42;;;;;;;3.60;2.77;;;;;;;;;;4885752;29;20450;-79
2023/03/19 00:48:08;;;;;;;3.73;2.37;;;;;;;;;;4884272;29;20422;-79
2023/03/19 00:50:34;;;;;;;5.22;2.80;;;;;;;;;;4893146;29;21022;-80
2023/03/19 00:53:00;;;;;;;3.95;2.85;;;;;;;;;;4899020;29;20214;-79
2023/03/19 00:55:26;;;;;;;5.27;2.70;;;;;;;;;;4901041;29;20182;-79
2023/03/19 00:57:52;;;;;;;8.27;2.57;;;;;;;;;;4902391;29;20489;-79
2023/03/19 01:00:19;;;;;;;3.85;3.05;;;;;;;;;;4901527;29;20839;-79
2023/03/19 01:02:45;;;;;;;7.03;3.10;;;;;;;;;;4901352;29;20258;-79
2023/03/19 01:05:11;;;;;;;7.20;2.97;;;;;;;;;;4902677;29;20628;-79
2023/03/19 01:07:37;;;;;;;6.30;2.50;;;;;;;;;;4901850;29;20258;-79
2023/03/19 01:10:03;;;;;;;3.33;2.92;;;;;;;;;;4901252;29;20555;-78
2023/03/19 01:12:29;;;;;;;6.00;3.30;;;;;;;;;;4885602;29;20680;-79
2023/03/19 01:14:55;;;;;;;5.93;3.30;;;;;;;;;;4885492;29;20273;-79
2023/03/19 01:17:21;;;;;;;5.30;2.87;;;;;;;;;;4900842;29;20259;-79
2023/03/19 01:19:48;;;;;;;5.20;2.92;;;;;;;;;;4884977;29;20420;-79
2023/03/19 01:22:15;;;;;;;4.85;3.10;;;;;;;;;;4884845;29;20201;-79
2023/03/19 01:24:41;;;;;;;4.15;2.72;;;;;;;;;;4900860;29;20519;-80
2023/03/19 01:27:07;;;;;;;4.43;3.45;;;;;;;;;;4885208;29;20270;-78
2023/03/19 01:29:34;;;;;;;4.47;2.80;;;;;;;;;;4884685;29;20727;-78
2023/03/19 01:32:00;;;;;;;4.85;2.67;;;;;;;;;;4900953;29;20179;-79
2023/03/19 01:34:26;;;;;;;2.88;2.58;;;;;;;;;;4884343;29;20644;-79
2023/03/19 01:36:52;;;;;;;5.10;3.17;;;;;;;;;;4901683;29;20628;-79
2023/03/19 01:39:18;;;;;;;2.90;2.45;;;;;;;;;;4900679;29;20318;-79
2023/03/19 01:41:44;;;;;;;3.97;2.50;;;;;;;;;;4901721;29;20185;-79
2023/03/19 01:44:43;;;;;;;11.65;3.28;;;;;;;;;;4884920;29;20294;-79
2023/03/19 01:47:17;;;;;;;2.80;2.53;;;;;;;;;;4859812;29;20183;-79
2023/03/19 01:49:44;;;;;;;2.78;1.85;;;;;;;;;;4901822;29;20167;-79
2023/03/19 01:52:12;;;;;;;3.15;2.45;;;;;;;;;;4901704;29;20249;-79
2023/03/19 01:54:39;;;;;;;3.38;2.20;;;;;;;;;;4884577;29;20191;-79
2023/03/19 01:57:09;;;;;;;4.30;2.45;;;;;;;;;;4901445;29;20193;-78
2023/03/19 01:59:40;;;;;;;7.43;2.97;;;;;;;;;;4901453;29;20173;-79
2023/03/19 02:02:26;;;;;;;2.75;2.50;;;;;;;;;;4901083;29;20620;-79
2023/03/19 02:04:55;;;;;;;7.18;2.63;;;;;;;;;;4901076;29;20175;-79
2023/03/19 02:07:22;;;;;;;7.07;3.05;;;;;;;;;;4901292;29;20569;-79
2023/03/19 02:09:48;;;;;;;4.20;1.95;;;;;;;;;;4901076;29;20175;-79
2023/03/19 02:12:14;;;;;;;2.92;2.58;;;;;;;;;;4884476;29;20218;-79
2023/03/19 02:14:40;;;;;;;6.15;2.83;;;;;;;;;;4884622;29;20187;-79
2023/03/19 02:17:07;;;;;;;3.63;2.35;;;;;;;;;;4901838;29;20481;-79
2023/03/19 02:19:36;;;;;;;6.35;2.78;;;;;;;;;;4900603;29;20202;-80
2023/03/19 02:22:03;;;;;;;4.47;2.70;;;;;;;;;;4884006;29;20658;-79
2023/03/19 02:24:33;;;;;;;5.13;2.63;;;;;;;;;;4900525;29;20190;-80
2023/03/19 02:26:59;;;;;;;2.92;2.28;;;;;;;;;;4901002;29;20183;-80
2023/03/19 02:29:25;;;;;;;4.90;2.60;;;;;;;;;;4884126;29;20270;-79
2023/03/19 02:31:51;;;;;;;3.63;2.15;;;;;;;;;;4900950;29;20601;-79
2023/03/19 02:34:20;;;;;;;4.07;2.25;;;;;;;;;;4900514;29;20214;-79
2023/03/19 02:36:48;;;;;;;3.60;2.50;;;;;;;;;;4900800;29;20579;-79
2023/03/19 02:39:20;;;;;;;5.63;2.45;;;;;;;;;;4900953;29;20167;-79
2023/03/19 02:41:46;;;;;;;3.83;2.83;;;;;;;;;;4900922;29;20215;-79
2023/03/19 02:44:12;;;;;;;4.60;3.17;;;;;;;;;;4884048;29;20187;-79
2023/03/19 02:46:38;;;;;;;3.63;2.90;;;;;;;;;;4900059;29;20174;-79
2023/03/19 02:49:04;;;;;;;4.57;1.83;;;;;;;;;;4901102;29;20197;-79
2023/03/19 02:51:30;;;;;;;3.30;2.58;;;;;;;;;;4900214;29;20179;-79
2023/03/19 02:53:56;;;;;;;5.30;2.60;;;;;;;;;;4900470;29;20261;-79
2023/03/19 02:56:22;;;;;;;5.78;2.92;;;;;;;;;;4899793;29;20187;-80
2023/03/19 02:58:49;;;;;;;3.88;2.47;;;;;;;;;;4899457;29;20179;-79
2023/03/19 03:01:15;;;;;;;6.72;2.90;;;;;;;;;;4900489;29;20185;-79
2023/03/19 03:03:41;;;;;;;5.13;2.53;;;;;;;;;;4899971;29;20261;-80
2023/03/19 03:06:07;;;;;;;3.90;2.35;;;;;;;;;;4900769;29;20427;-79
2023/03/19 03:08:33;;;;;;;3.33;2.77;;;;;;;;;;4883494;29;20254;-79
2023/03/19 03:10:59;;;;;;;6.87;2.50;;;;;;;;;;4883784;29;20430;-79
2023/03/19 03:13:26;;;;;;;4.72;2.10;;;;;;;;;;4899944;29;20831;-79
2023/03/19 03:15:52;;;;;;;3.08;2.05;;;;;;;;;;4884151;29;20281;-79
2023/03/19 03:18:18;;;;;;;3.10;2.15;;;;;;;;;;4883203;29;20671;-80
2023/03/19 03:20:44;;;;;;;5.90;2.05;;;;;;;;;;4899926;29;20628;-80
2023/03/19 03:23:10;;;;;;;3.03;2.22;;;;;;;;;;4899840;29;20190;-79
2023/03/19 03:25:36;;;;;;;3.97;2.33;;;;;;;;;;4900063;29;20559;-79
2023/03/19 03:28:02;;;;;;;4.10;2.30;;;;;;;;;;4899551;29;20202;-80
2023/03/19 03:30:28;;;;;;;6.37;3.07;;;;;;;;;;4899787;29;20435;-79
2023/03/19 03:32:55;;;;;;;4.88;2.47;;;;;;;;;;4883556;29;20866;-80
2023/03/19 03:35:21;;;;;;;4.00;2.60;;;;;;;;;;4882622;29;20590;-80
2023/03/19 03:37:51;;;;;;;7.15;2.33;;;;;;;;;;4883593;29;20195;-79
2023/03/19 03:40:17;;;;;;;2.70;2.30;;;;;;;;;;4900304;29;20253;-79
2023/03/19 03:42:43;;;;;;;2.97;2.42;;;;;;;;;;4899876;29;20166;-79
2023/03/19 03:45:11;;;;;;;2.90;2.00;;;;;;;;;;4900008;29;20171;-79
2023/03/19 03:47:38;;;;;;;3.10;1.90;;;;;;;;;;4882742;29;20184;-79
2023/03/19 03:50:04;;;;;;;5.45;3.10;;;;;;;;;;4867365;29;20194;-79
2023/03/19 03:52:32;;;;;;;6.22;2.35;;;;;;;;;;4899010;29;20293;-79
2023/03/19 03:54:59;;;;;;;3.88;2.50;;;;;;;;;;4883106;29;20178;-79
2023/03/19 03:57:26;;;;;;;6.30;2.30;;;;;;;;;;4899555;29;20183;-79
2023/03/19 03:59:52;;;;;;;4.22;2.42;;;;;;;;;;4899775;29;20178;-79
2023/03/19 04:02:18;;;;;;;3.00;1.95;;;;;;;;;;4900029;29;20187;-79
2023/03/19 04:04:44;;;;;;;4.90;2.92;;;;;;;;;;4899410;29;20258;-80
2023/03/19 04:07:10;;;;;;;2.20;1.93;;;;;;;;;;4882838;29;20210;-80
2023/03/19 04:09:36;;;;;;;4.07;2.10;;;;;;;;;;4900636;29;20403;-80
2023/03/19 04:12:02;;;;;;;2.90;2.30;;;;;;;;;;4903343;29;20167;-79
2023/03/19 04:14:28;;;;;;;3.55;2.42;;;;;;;;;;4886064;29;20643;-79
2023/03/19 04:16:55;;;;;;;3.00;1.90;;;;;;;;;;4886124;29;20269;-80
2023/03/19 04:19:21;;;;;;;3.00;1.92;;;;;;;;;;4871056;29;20517;-79
2023/03/19 04:21:47;;;;;;;3.40;1.90;;;;;;;;;;4903069;29;20534;-79
2023/03/19 04:24:13;;;;;;;2.30;2.10;;;;;;;;;;4903338;29;20195;-79
2023/03/19 04:26:39;;;;;;;4.68;2.90;;;;;;;;;;4903068;29;20403;-79
2023/03/19 04:29:07;;;;;;;3.28;2.30;;;;;;;;;;4903019;29;20524;-79
2023/03/19 04:31:33;;;;;;;7.88;2.08;;;;;;;;;;4902810;29;20174;-79
2023/03/19 04:33:59;;;;;;;5.05;2.28;;;;;;;;;;4886245;29;20218;-79
2023/03/19 04:36:25;;;;;;;3.50;2.10;;;;;;;;;;4902491;29;20226;-80
2023/03/19 04:38:51;;;;;;;2.75;1.63;;;;;;;;;;4903045;29;20411;-79
2023/03/19 04:41:17;;;;;;;2.30;2.00;;;;;;;;;;4902917;29;20695;-79
2023/03/19 04:43:43;;;;;;;3.10;2.15;;;;;;;;;;4902685;29;20848;-80
2023/03/19 04:46:10;;;;;;;3.90;1.87;;;;;;;;;;4902459;29;20270;-79
2023/03/19 04:48:38;;;;;;;3.92;1.63;;;;;;;;;;4902336;29;20407;-80
2023/03/19 04:51:07;;;;;;;1.95;1.75;;;;;;;;;;4902449;29;20596;-79
2023/03/19 04:53:33;;;;;;;2.97;1.90;;;;;;;;;;4902382;29;20199;-79
2023/03/19 04:56:00;;;;;;;3.15;1.90;;;;;;;;;;4902840;29;20550;-80
2023/03/19 04:58:26;;;;;;;4.32;2.25;;;;;;;;;;4902082;29;20171;-80
2023/03/19 05:00:52;;;;;;;4.53;1.90;;;;;;;;;;4902246;29;20167;-79
2023/03/19 05:03:18;;;;;;;8.18;3.20;;;;;;;;;;4886015;29;20195;-80
2023/03/19 05:05:44;;;;;;;2.70;1.90;;;;;;;;;;4902245;29;20223;-79
2023/03/19 05:08:12;;;;;;;4.50;1.75;;;;;;;;;;4902030;29;20635;-80
2023/03/19 05:10:38;;;;;;;1.75;1.63;;;;;;;;;;4902410;29;20591;-80
2023/03/19 05:13:04;;;;;;;4.10;2.00;;;;;;;;;;4902314;29;20222;-80
2023/03/19 05:15:30;;;;;;;3.50;2.10;;;;;;;;;;4901523;29;20174;-80
2023/03/19 05:17:56;;;;;;;2.72;2.00;;;;;;;;;;4885038;29;20529;-80
2023/03/19 05:20:22;;;;;;;2.22;1.95;;;;;;;;;;4901564;29;20183;-79
2023/03/19 05:22:48;;;;;;;2.75;2.00;;;;;;;;;;4901012;29;20193;-80
2023/03/19 05:25:15;;;;;;;4.95;2.08;;;;;;;;;;4885069;29;20210;-79
2023/03/19 05:27:41;;;;;;;4.85;1.67;;;;;;;;;;4901893;29;20174;-79
2023/03/19 05:30:08;;;;;;;2.90;1.90;;;;;;;;;;4885307;29;20181;-79
2023/03/19 05:32:34;;;;;;;2.95;2.10;;;;;;;;;;4901127;29;20247;-80
2023/03/19 05:35:00;;;;;;;4.15;1.88;;;;;;;;;;4901779;29;20185;-79
2023/03/19 05:37:26;;;;;;;3.23;2.23;;;;;;;;;;4901829;29;20234;-79
2023/03/19 05:39:52;;;;;;;2.58;1.90;;;;;;;;;;4901876;29;20456;-79
2023/03/19 05:42:18;;;;;;;3.20;2.20;;;;;;;;;;4901589;29;20277;-80
2023/03/19 05:44:45;;;;;;;3.40;2.20;;;;;;;;;;4884789;29;20198;-79
2023/03/19 05:47:11;;;;;;;2.55;1.98;;;;;;;;;;4901799;29;20631;-79
2023/03/19 05:49:37;;;;;;;2.83;2.28;;;;;;;;;;4884671;29;20303;-80
2023/03/19 05:52:03;;;;;;;4.72;2.22;;;;;;;;;;4901640;29;20210;-79
2023/03/19 05:54:29;;;;;;;4.00;2.35;;;;;;;;;;4901341;29;20556;-80
2023/03/19 05:56:55;;;;;;;3.55;1.95;;;;;;;;;;4901579;29;20178;-80
2023/03/19 05:59:21;;;;;;;4.75;2.30;;;;;;;;;;4884558;29;20194;-80
2023/03/19 06:01:48;;;;;;;6.53;2.67;;;;;;;;;;4884583;29;20191;-80
2023/03/19 06:04:14;;;;;;;3.92;1.70;;;;;;;;;;4901298;29;20186;-80
2023/03/19 06:06:40;;;;;;;5.25;2.13;;;;;;;;;;4884611;29;20239;-79
2023/03/19 06:09:06;;;;;;;3.55;2.55;;;;;;;;;;4901729;29;20514;-80
2023/03/19 06:11:32;;;;;;;2.20;1.67;;;;;;;;;;4884577;29;20224;-80
2023/03/19 06:13:58;;;;;;;2.70;2.25;;;;;;;;;;4901674;29;20210;-79
2023/03/19 06:16:24;;;;;;;2.60;2.40;;;;;;;;;;4901111;29;20259;-79
2023/03/19 06:18:50;;;;;;;3.40;2.22;;;;;;;;;;4901250;29;20448;-79
2023/03/19 06:21:16;;;;;;;3.28;2.00;;;;;;;;;;4901038;29;20171;-79
2023/03/19 06:23:42;;;;;;;2.53;1.90;;;;;;;;;;4900798;29;20193;-79
2023/03/19 06:26:08;;;;;;;2.35;2.13;;;;;;;;;;4900768;29;20175;-79
2023/03/19 06:28:35;;;;;;;4.18;2.08;;;;;;;;;;4900813;29;20214;-79
2023/03/19 06:31:01;;;;;;;4.60;1.90;;;;;;;;;;4900856;29;20182;-80
2023/03/19 06:33:30;;;;;;;2.50;1.95;;;;;;;;;;4900617;29;20781;-79
2023/03/19 06:35:57;;;;;;;4.07;2.10;;;;;;;;;;4900305;29;20589;-79
2023/03/19 06:38:23;;;;;;;3.13;1.88;;;;;;;;;;4884339;29;20217;-79
2023/03/19 06:40:48;;;;;;;2.97;1.90;;;;;;;;;;4901074;29;20206;-80
2023/03/19 06:43:14;;;;;;;2.33;2.13;;;;;;;;;;4900407;29;20171;-80
2023/03/19 06:45:40;;;;;;;2.63;2.30;;;;;;;;;;4900292;29;20407;-79
2023/03/19 06:48:06;;;;;;;2.40;2.00;;;;;;;;;;4900681;29;20404;-79
2023/03/19 06:50:32;;;;;;;3.10;1.90;;;;;;;;;;4883777;29;20454;-79
2023/03/19 06:52:58;;;;;;;2.20;2.00;;;;;;;;;;4884122;29;21015;-80
2023/03/19 06:55:25;;;;;;;2.15;1.70;;;;;;;;;;4883350;29;20423;-79
2023/03/19 06:57:51;;;;;;;4.82;2.30;;;;;;;;;;4883408;29;20175;-79
2023/03/19 07:00:17;;;;;;;3.00;1.90;;;;;;;;;;4900312;29;20186;-79
2023/03/19 07:02:43;;;;;;;2.22;1.90;;;;;;;;;;4900185;29;20399;-79
2023/03/19 07:05:09;;;;;;;2.42;1.90;;;;;;;;;;4900112;29;20293;-79
2023/03/19 07:07:35;;;;;;;2.67;1.92;;;;;;;;;;4883168;29;20274;-79
2023/03/19 07:10:02;;;;;;;2.88;1.70;;;;;;;;;;4900521;29;20182;-79
2023/03/19 07:12:28;;;;;;;1.52;1.40;;;;;;;;;;4882951;29;20217;-79
2023/03/19 07:14:55;;;;;;;2.90;1.73;;;;;;;;;;4900341;29;20278;-79
2023/03/19 07:17:21;;;;;;;7.40;2.50;;;;;;;;;;4900290;29;20406;-79
2023/03/19 07:19:47;;;;;;;2.78;2.00;;;;;;;;;;4900343;29;20449;-79
2023/03/19 07:22:13;;;;;;;3.77;2.17;;;;;;;;;;4882982;29;20243;-79
2023/03/19 07:24:39;;;;;;;3.08;1.88;;;;;;;;;;4899937;29;20414;-78
2023/03/19 07:27:05;;;;;;;2.47;2.10;;;;;;;;;;4900249;29;20183;-79
2023/03/19 07:29:31;;;;;;;1.85;1.60;;;;;;;;;;4900146;29;20426;-79
2023/03/19 07:31:57;;;;;;;3.53;1.90;;;;;;;;;;4883047;29;20187;-79
2023/03/19 07:34:23;;;;;;;2.30;2.10;;;;;;;;;;4899635;29;20214;-79
2023/03/19 07:36:50;;;;;;;2.80;1.93;;;;;;;;;;4882519;29;20233;-79
2023/03/19 07:39:16;;;;;;;3.50;1.85;;;;;;;;;;4883270;29;20760;-79
2023/03/19 07:41:43;;;;;;;5.50;1.90;;;;;;;;;;4899265;29;20256;-79
2023/03/19 07:44:10;;;;;;;3.70;2.00;;;;;;;;;;4900090;29;20636;-79
2023/03/19 07:46:36;;;;;;;2.17;1.93;;;;;;;;;;4903817;29;20396;-79
2023/03/19 07:49:02;;;;;;;2.53;2.27;;;;;;;;;;4904245;29;20426;-79
2023/03/19 07:51:28;;;;;;;2.40;1.87;;;;;;;;;;4871206;29;20960;-79
2023/03/19 07:53:54;;;;;;;2.63;2.43;;;;;;;;;;4886752;29;20466;-79
2023/03/19 07:56:20;;;;;;;3.17;2.10;;;;;;;;;;4903600;29;20403;-79
2023/03/19 07:58:46;;;;;;;2.70;2.00;;;;;;;;;;4903610;29;20408;-79
2023/03/19 08:01:12;;;;;;;2.30;1.80;;;;;;;;;;4886791;29;20419;-79
2023/03/19 08:03:39;;;;;;;1.93;1.83;;;;;;;;;;4886240;29;20430;-79
2023/03/19 08:06:05;;;;;;;2.00;1.90;;;;;;;;;;4903542;29;20423;-79
2023/03/19 08:08:33;;;;;;;2.55;1.83;;;;;;;;;;4903124;29;20816;-80
2023/03/19 08:10:59;;;;;;;1.80;1.70;;;;;;;;;;4886263;29;20186;-79
2023/03/19 08:13:25;;;;;;;4.60;2.00;;;;;;;;;;4903458;29;20466;-79
2023/03/19 08:15:52;;;;;;;3.03;1.80;;;;;;;;;;4903127;29;20430;-79
2023/03/19 08:18:19;;;;;;;2.67;1.97;;;;;;;;;;4903652;29;20439;-79
2023/03/19 08:20:46;;;;;;;2.87;1.60;;;;;;;;;;4903271;29;20421;-79
2023/03/19 08:23:12;;;;;;;2.53;2.10;;;;;;;;;;4903511;29;20400;-79
2023/03/19 08:25:38;;;;;;;3.73;1.80;;;;;;;;;;4903704;29;20423;-80
2023/03/19 08:28:04;;;;;;;2.13;1.87;;;;;;;;;;4903319;29;20403;-79
2023/03/19 08:30:30;;;;;;;4.03;2.40;;;;;;;;;;4903112;29;20407;-79
2023/03/19 08:32:57;;;;;;;1.97;1.87;;;;;;;;;;4902876;29;20466;-79
2023/03/19 08:35:25;;;;;;;3.43;2.00;;;;;;;;;;4902949;29;20486;-79
2023/03/19 08:37:51;;;;;;;4.10;1.93;;;;;;;;;;4902377;29;20395;-80
2023/03/19 08:40:18;;;;;;;3.40;2.00;;;;;;;;;;4886164;29;20422;-79
2023/03/19 08:42:44;;;;;;;3.83;1.70;;;;;;;;;;4903061;29;20415;-79
2023/03/19 08:45:10;;;;;;;2.20;1.93;;;;;;;;;;4903014;29;20411;-79
2023/03/19 08:47:37;;;;;;;2.30;2.10;;;;;;;;;;4902919;29;20430;-80
2023/03/19 08:50:03;;;;;;;2.67;1.83;;;;;;;;;;4902756;29;20415;-79
2023/03/19 08:52:29;;;;;;;2.33;2.13;;;;;;;;;;4901826;29;21015;-79
2023/03/19 08:54:55;;;;;;;3.83;2.37;;;;;;;;;;4902108;29;20403;-79
2023/03/19 08:57:21;;;;;;;2.57;1.93;;;;;;;;;;4901154;29;20412;-79
2023/03/19 08:59:47;;;;;;;2.60;2.40;;;;;;;;;;4902500;29;20407;-79
2023/03/19 09:02:14;;;;;;;2.33;2.13;;;;;;;;;;4902301;29;20507;-79
2023/03/19 09:04:40;;;;;;;3.53;2.93;;;;;;;;;;4885355;29;20558;-80
2023/03/19 09:07:06;;;;;;;2.53;2.33;;;;;;;;;;4901888;29;20447;-79
2023/03/19 09:09:32;;;;;;;3.10;2.40;;;;;;;;;;4902474;29;20436;-79
2023/03/19 09:11:59;;;;;;;2.90;2.60;;;;;;;;;;4902211;29;20411;-79
2023/03/19 09:14:26;;;;;;;2.70;2.50;;;;;;;;;;4869625;29;20830;-79
2023/03/19 09:16:52;;;;;;;2.33;2.13;;;;;;;;;;4901608;29;20411;-79
2023/03/19 09:19:18;;;;;;;3.10;2.90;;;;;;;;;;4901865;29;20423;-79
2023/03/19 09:21:45;;;;;;;3.00;2.70;;;;;;;;;;4901668;29;20441;-79
2023/03/19 09:24:11;;;;;;;2.50;2.30;;;;;;;;;;4901774;29;20810;-79
2023/03/19 09:26:37;;;;;;;5.10;2.50;;;;;;;;;;4885197;29;20415;-80
2023/03/19 09:29:03;;;;;;;2.97;2.70;;;;;;;;;;4901695;29;20386;-79
2023/03/19 09:31:30;;;;;;;2.57;2.37;;;;;;;;;;4885309;29;20430;-79
2023/03/19 09:33:56;;;;;;;2.37;2.17;;;;;;;;;;4884621;29;20471;-79
2023/03/19 09:36:22;;;;;;;2.90;2.70;;;;;;;;;;4901314;29;20487;-79
2023/03/19 09:38:48;;;;;;;2.70;2.40;;;;;;;;;;4901401;29;20403;-79
2023/03/19 09:41:20;;;;;;;2.93;2.63;;;;;;;;;;4884917;29;20411;-79
2023/03/19 09:43:46;;;;;;;2.83;2.30;;;;;;;;;;4901245;29;20462;-79
2023/03/19 09:46:20;;;;;;;3.87;2.50;;;;;;;;;;4901576;29;20438;-80
2023/03/19 09:49:10;;;;;;;2.97;2.00;;;;;;;;;;4884711;29;20461;-80
2023/03/19 09:51:43;;;;;;;2.40;2.20;;;;;;;;;;4890888;29;20419;-77
2023/03/19 09:54:22;;;;;;;2.67;2.47;;;;;;;;;;4901380;29;20467;-77
2023/03/19 09:56:48;;;;;;;2.47;2.20;;;;;;;;;;4900899;29;20865;-77
2023/03/19 09:59:15;;;;;;;2.40;2.00;;;;;;;;;;4900922;29;20752;-77
2023/03/19 10:01:44;;;;;;;4.00;2.47;;;;;;;;;;4900872;29;20410;-77
2023/03/19 10:04:30;;;;;;;2.40;2.07;;;;;;;;;;4901174;29;20384;-79
2023/03/19 10:07:12;;;;;;;3.10;2.07;;;;;;;;;;4901090;29;20788;-77
2023/03/19 10:09:51;;;;;;;1.87;1.77;;;;;;;;;;4901505;29;20383;-77
2023/03/19 10:12:26;;;;;;;2.33;1.80;;;;;;;;;;4884915;29;20792;-77
2023/03/19 10:14:55;;;;;;;2.10;1.93;;;;;;;;;;4901370;29;20414;-77
2023/03/19 10:17:27;;;;;;;2.40;2.20;;;;;;;;;;4901741;29;20419;-77
2023/03/19 10:19:55;;;;;;;2.30;2.10;;;;;;;;;;4901075;29;20411;-76
2023/03/19 10:22:28;;;;;;;2.23;1.70;;;;;;;;;;4901194;29;20423;-76
2023/03/19 10:24:56;;;;;;;1.93;1.83;;;;;;;;;;4901083;29;20419;-77
2023/03/19 10:27:22;;;;;;;1.73;1.63;;;;;;;;;;4901216;29;20487;-77
2023/03/19 10:29:48;;;;;;;2.10;1.90;;;;;;;;;;4884128;29;20420;-77
2023/03/19 10:32:28;;;;;;;2.97;1.97;;;;;;;;;;4900917;29;20479;-77
2023/03/19 10:34:58;;;;;;;1.70;1.60;;;;;;;;;;4901002;29;20400;-76
2023/03/19 10:37:25;;;;;;;1.90;1.70;;;;;;;;;;4901136;29;20877;-76
2023/03/19 10:39:53;;;;;;;1.73;1.60;;;;;;;;;;4901013;29;20452;-76
2023/03/19 10:42:19;;;;;;;1.70;1.60;;;;;;;;;;4884506;29;20947;-77
2023/03/19 10:44:54;;;;;;;2.37;1.73;;;;;;;;;;4900796;29;20426;-76
2023/03/19 10:47:24;;;;;;;1.50;1.40;;;;;;;;;;4900568;29;20413;-76
2023/03/19 10:49:50;;;;;;;1.50;1.40;;;;;;;;;;4900494;29;20880;-76
2023/03/19 10:52:22;;;;;;;1.60;1.20;;;;;;;;;;4901114;29;20790;-76
2023/03/19 10:54:48;;;;;;;2.27;1.23;;;;;;;;;;4900357;29;20958;-77
2023/03/19 10:57:21;;;;;;;1.40;1.30;;;;;;;;;;4883751;29;20429;-76
2023/03/19 10:59:48;;;;;;;1.20;1.10;;;;;;;;;;4900804;29;20762;-76
2023/03/19 11:02:16;;;;;;;1.47;1.03;;;;;;;;;;4900572;29;20884;-76
2023/03/19 11:04:42;;;;;;;2.93;1.90;;;;;;;;;;4899823;29;20738;-76
2023/03/19 11:07:20;;;;;;;2.53;1.70;;;;;;;;;;4883333;29;20408;-76
2023/03/19 11:09:48;;;;;;;3.90;2.00;;;;;;;;;;4884122;29;20370;-77
2023/03/19 11:12:21;;;;;;;5.73;2.57;;;;;;;;;;4900696;29;20403;-76
2023/03/19 11:14:49;;;;;;;9.73;4.43;;;;;;;;;;4899977;29;20499;-77
2023/03/19 11:17:15;;;;;;;5.53;1.80;;;;;;;;;;4900774;29;20403;-76
2023/03/19 11:19:42;;;;;;;3.77;1.70;;;;;;;;;;4899523;29;20430;-76
2023/03/19 11:22:21;;;;;;;2.67;2.03;;;;;;;;;;4900220;29;20403;-76
2023/03/19 11:24:49;;;;;;;2.33;2.13;;;;;;;;;;4899567;29;20490;-77
2023/03/19 11:27:15;;;;;;;2.80;1.90;;;;;;;;;;4900428;29;20410;-76
2023/03/19 11:29:42;;;;;;;2.10;1.90;;;;;;;;;;4900248;29;20757;-76
2023/03/19 11:32:16;;;;;;;1.47;1.30;;;;;;;;;;4900508;29;20446;-76
2023/03/19 11:35:00;;;;;;;1.30;1.20;;;;;;;;;;4900246;29;20908;-76
2023/03/19 11:37:45;;;;;;;1.33;1.10;;;;;;;;;;4900265;29;20443;-76
2023/03/19 11:40:18;;;;;;;1.00;0.80;;;;;;;;;;4900127;29;20463;-76
2023/03/19 11:42:50;;;;;;;7.00;3.97;;;;;;;;;;4900352;29;20892;-76
2023/03/19 11:45:16;;;;;;;0.80;0.73;;;;;;;;;;4900588;29;20407;-76
2023/03/19 11:48:08;;;;;;;1.03;0.63;;;;;;;;;;4900411;29;20403;-77
2023/03/19 11:50:50;;;;;;;2.70;1.60;;;;;;;;;;4871594;29;20421;-77
2023/03/19 11:53:16;;;;;;;0.70;0.60;;;;;;;;;;4900021;29;20470;-77
2023/03/19 11:55:52;;;;;;;1.93;0.50;;;;;;;;;;4900469;29;20416;-76
2023/03/19 11:58:21;;;;;;;1.10;0.53;;;;;;;;;;4900168;29;20407;-76
2023/03/19 12:00:51;;;;;;;0.90;0.60;;;;;;;;;;4900297;29;20423;-76
2023/03/19 12:03:33;;;;;;;1.13;0.60;;;;;;;;;;4900120;29;20409;-77
2023/03/19 12:06:23;;;;;;;1.10;0.63;;;;;;;;;;4900143;29;20404;-77
2023/03/19 12:08:50;;;;;;;0.60;0.50;;;;;;;;;;4900350;29;20798;-77
2023/03/19 12:11:19;;;;;;;0.90;0.60;;;;;;;;;;4899869;29;20415;-77
2023/03/19 12:13:50;;;;;;;1.10;0.80;;;;;;;;;;4899899;29;20552;-76
2023/03/19 12:16:25;;;;;;;1.20;0.73;;;;;;;;;;4899650;29;20447;-77
2023/03/19 12:18:58;;;;;;;0.60;0.50;;;;;;;;;;4899527;29;20393;-77
2023/03/19 12:21:28;;;;;;;0.90;0.80;;;;;;;;;;4900035;29;20385;-76
2023/03/19 12:24:03;;;;;;;0.70;0.60;;;;;;;;;;4899542;29;20382;-77
2023/03/19 12:26:49;;;;;;;0.80;0.60;;;;;;;;;;4899744;29;20417;-77
2023/03/19 12:29:37;;;;;;;1.00;0.80;;;;;;;;;;4899577;29;20951;-76
2023/03/19 12:32:31;;;;;;;1.00;0.70;;;;;;;;;;4902972;29;20433;-77
2023/03/19 12:35:01;;;;;;;0.70;0.60;;;;;;;;;;4882998;29;20999;-76
2023/03/19 12:37:34;;;;;;;1.20;0.80;;;;;;;;;;4903085;29;20444;-76
2023/03/19 12:40:18;;;;;;;0.80;0.60;;;;;;;;;;4902764;29;20415;-76
2023/03/19 12:42:45;;;;;;;2.43;0.73;;;;;;;;;;4903246;29;20543;-76
2023/03/19 12:45:30;;;;;;;1.00;0.70;;;;;;;;;;4902885;29;20385;-76
2023/03/19 12:48:00;;;;;;;1.00;0.67;;;;;;;;;;4902442;29;20452;-77
2023/03/19 12:50:27;;;;;;;1.10;0.87;;;;;;;;;;4902875;29;20407;-77
2023/03/19 12:52:57;;;;;;;1.53;0.60;;;;;;;;;;4902336;29;20528;-78
2023/03/19 12:55:35;;;;;;;1.00;0.67;;;;;;;;;;4886026;29;20765;-77
2023/03/19 12:58:09;;;;;;;0.70;0.50;;;;;;;;;;4902591;29;20470;-77
2023/03/19 13:00:41;;;;;;;1.40;0.70;;;;;;;;;;4902405;29;20741;-76
2023/03/19 13:03:09;;;;;;;1.10;0.60;;;;;;;;;;4901964;29;20772;-77
2023/03/19 13:05:59;;;;;;;0.83;0.77;;;;;;;;;;4902104;29;20422;-76
2023/03/19 13:08:25;;;;;;;1.47;0.80;;;;;;;;;;4892205;29;20419;-77
2023/03/19 13:10:51;;;;;;;0.87;0.77;;;;;;;;;;4901951;29;20419;-77
2023/03/19 13:13:36;;;;;;;2.67;0.93;;;;;;;;;;4901144;29;20470;-77
2023/03/19 13:16:25;;;;;;;0.97;0.80;;;;;;;;;;4901485;29;20395;-77
2023/03/19 13:18:51;;;;;;;2.00;0.90;;;;;;;;;;4884242;29;20421;-77
2023/03/19 13:21:17;;;;;;;2.90;1.30;;;;;;;;;;4901078;29;20423;-76
2023/03/19 13:23:45;;;;;;;1.63;0.70;;;;;;;;;;4901760;29;20412;-76
2023/03/19 13:26:13;;;;;;;1.87;0.93;;;;;;;;;;4900612;29;20388;-75
2023/03/19 13:28:53;;;;;;;1.60;0.90;;;;;;;;;;4900821;29;20812;-76
2023/03/19 13:31:21;;;;;;;1.23;0.97;;;;;;;;;;4907516;29;20397;-75
2023/03/19 13:34:01;;;;;;;1.33;0.80;;;;;;;;;;4919701;29;20470;-79
2023/03/19 13:36:29;;;;;;;2.73;1.10;;;;;;;;;;4919616;29;20466;-80
2023/03/19 13:38:56;;;;;;;1.13;0.97;;;;;;;;;;4919629;29;20477;-80
2023/03/19 13:41:38;;;;;;;1.63;1.10;;;;;;;;;;4919561;29;20466;-80
2023/03/19 13:44:24;;;;;;;1.23;1.00;;;;;;;;;;4919374;29;20421;-80
2023/03/19 13:46:50;;;;;;;1.00;0.90;;;;;;;;;;4902702;29;20887;-80
2023/03/19 13:49:19;;;;;;;2.07;1.17;;;;;;;;;;4919278;29;20955;-79
2023/03/19 13:51:49;;;;;;;1.37;1.00;;;;;;;;;;4919671;29;20410;-79
2023/03/19 13:54:18;;;;;;;2.03;1.03;;;;;;;;;;4919013;29;20472;-80
2023/03/19 13:57:00;;;;;;;2.33;1.20;;;;;;;;;;4902149;29;20927;-80
2023/03/19 13:59:27;;;;;;;3.53;1.07;;;;;;;;;;4919660;29;20743;-80
2023/03/19 14:01:54;;;;;;;3.10;1.03;;;;;;;;;;4919201;29;20388;-81
2023/03/19 14:04:21;;;;;;;1.10;0.77;;;;;;;;;;4919086;29;20493;-81
2023/03/19 14:06:49;;;;;;;2.77;0.80;;;;;;;;;;4918640;29;20782;-81
2023/03/19 14:09:34;;;;;;;1.43;0.80;;;;;;;;;;4918636;29;20425;-81
2023/03/19 14:12:09;;;;;;;1.40;1.00;;;;;;;;;;4901854;29;20760;-82
2023/03/19 14:14:40;;;;;;;1.30;0.87;;;;;;;;;;4901952;29;21094;-75
2023/03/19 14:17:12;;;;;;;1.60;1.50;;;;;;;;;;4916954;29;20410;-78
2023/03/19 14:19:40;;;;;;;1.17;1.07;;;;;;;;;;4917454;29;20373;-76
2023/03/19 14:22:17;;;;;;;2.13;1.13;;;;;;;;;;4898407;29;20404;-77
2023/03/19 14:24:54;;;;;;;1.33;1.23;;;;;;;;;;4899280;29;20392;-77
2023/03/19 14:27:35;;;;;;;2.97;1.30;;;;;;;;;;4899090;29;20769;-77
2023/03/19 14:30:15;;;;;;;2.13;1.60;;;;;;;;;;4899000;29;20381;-78
2023/03/19 14:32:41;;;;;;;2.23;1.10;;;;;;;;;;4882785;29;20502;-78
2023/03/19 14:35:10;;;;;;;2.30;1.70;;;;;;;;;;4898715;29;20377;-78
2023/03/19 14:37:36;;;;;;;1.70;1.60;;;;;;;;;;4898956;29;20491;-77
2023/03/19 14:40:22;;;;;;;2.67;1.50;;;;;;;;;;4898885;29;20390;-77
2023/03/19 14:42:48;;;;;;;1.83;1.60;;;;;;;;;;4898971;29;20397;-77
2023/03/19 14:45:21;;;;;;;2.13;1.90;;;;;;;;;;4898528;29;20414;-78
2023/03/19 14:48:02;;;;;;;2.00;1.70;;;;;;;;;;4898872;29;20419;-77
2023/03/19 14:50:34;;;;;;;1.83;1.70;;;;;;;;;;4898983;29;20418;-77
2023/03/19 14:53:17;;;;;;;4.20;2.30;;;;;;;;;;4898901;29;20445;-79